Time;durP1;ratioP1;P1;durP2;ratioP2;P2;SDS_P1;SDS_P2;PMS_P1;PMS_P2;Temp;Humidity;BMP_temperature;BMP_pressure;BME280_temperature;BME280_humidity;BME280_pressure;Samples;Min_cycle;Max_cycle;Signal;HPM_P1;HPM_P2
2022/09/23 00:00:18;;;;;;;;;;;;;;;12.84;100.00;98343.09;5074702;28;19928;-88
2022/09/23 00:02:47;;;;;;;;;;;;;;;12.88;100.00;98346.84;5048219;28;19935;-91
2022/09/23 00:05:14;;;;;;;;;;;;;;;12.51;100.00;98344.38;5061093;28;19931;-89
2022/09/23 00:07:40;;;;;;;;;;;;;;;12.60;100.00;98347.31;5074739;28;19994;-86
2022/09/23 00:10:09;;;;;;;;;;;;;;;12.76;100.00;98348.97;5064724;28;19931;-86
2022/09/23 00:12:35;;;;;;;;;;;;;;;12.83;100.00;98333.44;5062784;28;19932;-88
2022/09/23 00:15:01;;;;;;;;;;;;;;;12.89;100.00;98333.19;5059467;28;20685;-88
2022/09/23 00:17:28;;;;;;;;;;;;;;;12.73;100.00;98326.19;5069772;28;19978;-88
2022/09/23 00:19:55;;;;;;;;;;;;;;;12.65;100.00;98334.75;5064523;28;19931;-88
2022/09/23 00:22:21;;;;;;;;;;;;;;;12.54;100.00;98337.66;5054574;28;19928;-87
2022/09/23 00:24:47;;;;;;;;;;;;;;;12.29;100.00;98333.88;5084068;28;20571;-87
2022/09/23 00:27:15;;;;;;;;;;;;;;;12.32;100.00;98330.66;5065396;28;19924;-88
2022/09/23 00:29:42;;;;;;;;;;;;;;;12.54;100.00;98329.63;5047082;28;19925;-88
2022/09/23 00:32:08;;;;;;;;;;;;;;;12.65;100.00;98328.59;5059511;28;20022;-87
2022/09/23 00:34:34;;;;;;;;;;;;;;;12.73;100.00;98326.19;5072863;28;19924;-87
2022/09/23 00:37:01;;;;;;;;;;;;;;;12.79;100.00;98322.44;5072480;28;19925;-86
2022/09/23 00:39:27;;;;;;;;;;;;;;;12.84;100.00;98321.66;5047148;28;20568;-88
2022/09/23 00:41:53;;;;;;;;;;;;;;;12.83;100.00;98323.53;5074505;28;19924;-88
2022/09/23 00:44:44;;;;;;;;;;;;;;;12.86;100.00;98317.63;5046692;28;20015;-88
2022/09/23 00:47:14;;;;;;;;;;;;;;;12.86;100.00;98322.19;5058566;28;20660;-87
2022/09/23 00:49:41;;;;;;;;;;;;;;;12.88;100.00;98320.84;5065734;28;19989;-89
2022/09/23 00:52:11;;;;;;;;;;;;;;;12.85;100.00;98313.34;5066284;28;20015;-87
2022/09/23 00:54:37;;;;;;;;;;;;;;;12.55;100.00;98316.00;5045506;28;19924;-88
2022/09/23 00:57:04;;;;;;;;;;;;;;;12.30;100.00;98308.69;5079094;28;19988;-87
2022/09/23 00:59:31;;;;;;;;;;;;;;;12.00;100.00;98310.47;5076659;28;19932;-88
2022/09/23 01:02:00;;;;;;;;;;;;;;;12.21;100.00;98320.19;5077704;28;20027;-88
2022/09/23 01:04:28;;;;;;;;;;;;;;;12.23;100.00;98312.69;5042815;28;19935;-88
2022/09/23 01:06:54;;;;;;;;;;;;;;;12.13;100.00;98307.31;5072489;28;19928;-89
2022/09/23 01:09:21;;;;;;;;;;;;;;;12.36;100.00;98317.53;5083027;28;19924;-88
2022/09/23 01:11:53;;;;;;;;;;;;;;;12.51;100.00;98306.06;5043041;28;19935;-88
2022/09/23 01:14:30;;;;;;;;;;;;;;;12.50;100.00;98302.59;5073580;28;19929;-88
2022/09/23 01:16:59;;;;;;;;;;;;;;;12.60;100.00;98299.09;5063761;28;19968;-88
2022/09/23 01:19:50;;;;;;;;;;;;;;;12.56;100.00;98296.16;5064573;28;20251;-88
2022/09/23 01:22:22;;;;;;;;;;;;;;;12.56;100.00;98290.81;5052009;28;19928;-88
2022/09/23 01:24:59;;;;;;;;;;;;;;;12.20;100.00;98299.81;5047973;28;19925;-88
2022/09/23 01:27:41;;;;;;;;;;;;;;;11.75;100.00;98292.44;5059564;28;20138;-90
2022/09/23 01:30:16;;;;;;;;;;;;;;;11.36;100.00;98292.72;5058481;28;19924;-88
2022/09/23 01:32:54;;;;;;;;;;;;;;;11.14;100.00;98283.25;5067913;28;20010;-87
2022/09/23 01:35:26;;;;;;;;;;;;;;;11.27;100.00;98288.13;5049068;28;19924;-87
2022/09/23 01:37:58;;;;;;;;;;;;;;;11.46;100.00;98289.31;5065614;28;19971;-86
2022/09/23 01:40:29;;;;;;;;;;;;;;;11.74;100.00;98288.16;5044321;28;20023;-87
2022/09/23 01:42:57;;;;;;;;;;;;;;;12.00;100.00;98281.84;5063996;28;19928;-87
2022/09/23 01:45:25;;;;;;;;;;;;;;;12.12;100.00;98276.25;5060204;28;19924;-88
2022/09/23 01:47:55;;;;;;;;;;;;;;;12.01;100.00;98267.38;5068573;28;19924;-89
2022/09/23 01:53:11;;;;;;;;;;;;;;;12.22;100.00;98284.31;5062060;28;20001;-87
2022/09/23 01:55:40;;;;;;;;;;;;;;;12.31;100.00;98277.38;5068744;28;19975;-87
2022/09/23 01:58:08;;;;;;;;;;;;;;;12.36;100.00;98275.50;5066477;28;20406;-88
2022/09/23 02:00:39;;;;;;;;;;;;;;;12.40;100.00;98273.09;5066656;28;19931;-88
2022/09/23 02:03:12;;;;;;;;;;;;;;;12.43;100.00;98270.69;5077859;28;19931;-88
2022/09/23 02:05:43;;;;;;;;;;;;;;;12.42;100.00;98273.63;5078739;28;19928;-88
2022/09/23 02:08:11;;;;;;;;;;;;;;;12.28;100.00;98276.03;5062914;28;19925;-88
2022/09/23 02:10:43;;;;;;;;;;;;;;;12.18;100.00;98267.16;5058950;28;20014;-90
2022/09/23 02:13:14;;;;;;;;;;;;;;;12.11;100.00;98269.28;5081446;28;19927;-88
2022/09/23 02:15:44;;;;;;;;;;;;;;;12.13;100.00;98259.13;5067746;28;20381;-87
2022/09/23 02:18:14;;;;;;;;;;;;;;;11.78;100.00;98268.66;5046745;28;19935;-89
2022/09/23 02:20:41;;;;;;;;;;;;;;;11.70;100.00;98269.13;5041398;28;19928;-89
2022/09/23 02:23:11;;;;;;;;;;;;;;;11.90;100.00;98266.56;5077443;28;20397;-88
2022/09/23 02:25:41;;;;;;;;;;;;;;;12.09;100.00;98269.56;5053535;28;19924;-88
2022/09/23 02:28:12;;;;;;;;;;;;;;;12.15;100.00;98265.00;5074520;28;20347;-87
2022/09/23 02:30:43;;;;;;;;;;;;;;;12.23;100.00;98275.19;5067558;28;20508;-89
2022/09/23 02:33:12;;;;;;;;;;;;;;;12.29;100.00;98263.41;5067547;28;19930;-87
2022/09/23 02:35:47;;;;;;;;;;;;;;;12.31;100.00;98280.06;5065708;28;19925;-86
2022/09/23 02:38:19;;;;;;;;;;;;;;;12.30;100.00;98271.22;5068984;28;20011;-89
2022/09/23 02:40:50;;;;;;;;;;;;;;;12.28;100.00;98268.00;5049401;28;20602;-87
2022/09/23 02:43:20;;;;;;;;;;;;;;;12.30;100.00;98259.69;5068376;28;20499;-89
2022/09/23 02:45:46;;;;;;;;;;;;;;;12.32;100.00;98258.34;5052048;28;19935;-87
2022/09/23 02:48:15;;;;;;;;;;;;;;;12.29;100.00;98264.22;5064016;28;19963;-87
2022/09/23 02:50:42;;;;;;;;;;;;;;;12.28;100.00;98251.13;5069073;28;19954;-89
2022/09/23 02:53:09;;;;;;;;;;;;;;;12.24;100.00;98253.53;5067137;28;19955;-88
2022/09/23 02:55:35;;;;;;;;;;;;;;;12.22;100.00;98249.50;5073508;28;19932;-88
2022/09/23 02:58:04;;;;;;;;;;;;;;;12.21;100.00;98258.59;5048660;28;19928;-88
2022/09/23 03:00:38;;;;;;;;;;;;;;;11.93;100.00;98259.88;5064766;28;20087;-90
2022/09/23 03:03:11;;;;;;;;;;;;;;;11.94;100.00;98253.44;5073389;28;19924;-88
2022/09/23 03:05:40;;;;;;;;;;;;;;;11.84;100.00;98250.75;5077809;28;19982;-88
2022/09/23 03:08:17;;;;;;;;;;;;;;;11.86;100.00;98244.03;5069681;28;19938;-88
2022/09/23 03:10:51;;;;;;;;;;;;;;;11.94;100.00;98244.63;5075425;28;19924;-88
2022/09/23 03:13:25;;;;;;;;;;;;;;;11.96;100.00;98251.31;5042067;28;20344;-89
2022/09/23 03:15:56;;;;;;;;;;;;;;;11.98;100.00;98251.84;5056167;28;20025;-91
2022/09/23 03:18:30;;;;;;;;;;;;;;;11.98;100.00;98245.69;5069051;28;19924;-87
2022/09/23 03:20:58;;;;;;;;;;;;;;;11.75;100.00;98247.78;5048004;28;20687;-88
2022/09/23 03:23:29;;;;;;;;;;;;;;;11.80;100.00;98246.97;5072180;28;19942;-88
2022/09/23 03:25:58;;;;;;;;;;;;;;;11.87;100.00;98250.22;5060697;28;19929;-88
2022/09/23 03:28:25;;;;;;;;;;;;;;;11.92;100.00;98247.53;5057698;28;19925;-88
2022/09/23 03:30:53;;;;;;;;;;;;;;;11.91;100.00;98241.38;5068012;28;20780;-87
2022/09/23 03:33:21;;;;;;;;;;;;;;;11.94;100.00;98245.41;5072597;28;19974;-89
2022/09/23 03:38:40;;;;;;;;;;;;;;;11.64;100.00;98235.38;5077400;28;19930;-87
2022/09/23 03:41:09;;;;;;;;;;;;;;;11.45;100.00;98236.09;5060326;28;19971;-87
2022/09/23 03:43:36;;;;;;;;;;;;;;;11.52;100.00;98237.47;5084094;28;20033;-89
2022/09/23 03:46:02;;;;;;;;;;;;;;;11.44;100.00;98229.13;5071825;28;20575;-90
2022/09/23 03:48:28;;;;;;;;;;;;;;;11.55;100.00;98241.47;5072230;28;20452;-88
2022/09/23 03:50:55;;;;;;;;;;;;;;;11.64;100.00;98240.72;5071740;28;19932;-89
2022/09/23 03:53:21;;;;;;;;;;;;;;;11.73;100.00;98233.03;5050292;28;19939;-88
2022/09/23 03:55:49;;;;;;;;;;;;;;;11.80;100.00;98236.25;5051288;28;19941;-89
2022/09/23 03:58:16;;;;;;;;;;;;;;;11.82;100.00;98232.25;5069339;28;20380;-88
2022/09/23 04:00:43;;;;;;;;;;;;;;;11.69;100.00;98230.06;5052225;28;19925;-88
2022/09/23 04:03:09;;;;;;;;;;;;;;;11.29;100.00;98232.53;5064182;28;19925;-88
2022/09/23 04:05:36;;;;;;;;;;;;;;;11.34;100.00;98224.53;5079693;28;19959;-89
2022/09/23 04:08:02;;;;;;;;;;;;;;;11.47;100.00;98221.41;5069886;28;19936;-89
2022/09/23 04:10:28;;;;;;;;;;;;;;;11.57;100.00;98223.31;5060819;28;20023;-87
2022/09/23 04:12:56;;;;;;;;;;;;;;;11.62;100.00;98223.31;5062229;28;19960;-87
2022/09/23 04:15:22;;;;;;;;;;;;;;;11.63;100.00;98215.06;5079342;28;21675;-90
2022/09/23 04:17:49;;;;;;;;;;;;;;;11.63;100.00;98208.91;5063578;28;19924;-89
2022/09/23 04:20:18;;;;;;;;;;;;;;;11.54;100.00;98205.94;5059772;28;19940;-88
2022/09/23 04:22:44;;;;;;;;;;;;;;;11.50;100.00;98206.69;5050966;28;20020;-89
2022/09/23 04:25:10;;;;;;;;;;;;;;;11.42;100.00;98199.19;5050125;28;19924;-88
2022/09/23 04:27:37;;;;;;;;;;;;;;;11.41;100.00;98217.09;5061404;28;19924;-88
2022/09/23 04:30:06;;;;;;;;;;;;;;;11.35;100.00;98218.13;5048102;28;20192;-88
2022/09/23 04:32:32;;;;;;;;;;;;;;;10.94;100.00;98216.28;5052427;28;19924;-86
2022/09/23 04:34:58;;;;;;;;;;;;;;;10.98;100.00;98217.38;5059351;28;20180;-88
2022/09/23 04:37:25;;;;;;;;;;;;;;;10.80;100.00;98214.06;5047440;28;20314;-87
2022/09/23 04:39:51;;;;;;;;;;;;;;;11.07;100.00;98213.16;5062665;28;19928;-87
2022/09/23 04:42:18;;;;;;;;;;;;;;;11.01;100.00;98223.03;5047781;28;20049;-88
2022/09/23 04:44:44;;;;;;;;;;;;;;;10.94;100.00;98216.28;5064859;28;19925;-88
2022/09/23 04:47:12;;;;;;;;;;;;;;;11.05;100.00;98217.97;5067783;28;19930;-89
2022/09/23 04:49:38;;;;;;;;;;;;;;;11.21;100.00;98216.97;5075647;28;20014;-89
2022/09/23 04:52:05;;;;;;;;;;;;;;;11.11;100.00;98220.41;5062661;28;19934;-88
2022/09/23 04:54:31;;;;;;;;;;;;;;;11.09;100.00;98216.38;5080488;28;19972;-86
2022/09/23 04:56:58;;;;;;;;;;;;;;;10.80;100.00;98213.25;5076177;28;20649;-87
2022/09/23 04:59:24;;;;;;;;;;;;;;;10.62;100.00;98216.31;5057426;28;20019;-89
2022/09/23 05:01:53;;;;;;;;;;;;;;;10.34;100.00;98217.41;5067208;28;19952;-88
2022/09/23 05:04:21;;;;;;;;;;;;;;;10.72;100.00;98217.22;5079022;28;20049;-87
2022/09/23 05:06:48;;;;;;;;;;;;;;;10.97;100.00;98215.78;5068609;28;20041;-87
2022/09/23 05:09:16;;;;;;;;;;;;;;;11.02;100.00;98216.59;5075467;28;19930;-85
2022/09/23 05:11:42;;;;;;;;;;;;;;;11.16;100.00;98219.63;5063214;28;19929;-88
2022/09/23 05:14:09;;;;;;;;;;;;;;;11.20;100.00;98224.19;5057190;28;19964;-86
2022/09/23 05:16:35;;;;;;;;;;;;;;;10.89;100.00;98230.44;5074999;28;19977;-88
2022/09/23 05:19:02;;;;;;;;;;;;;;;10.13;100.00;98226.28;5063231;28;20513;-88
2022/09/23 05:21:30;;;;;;;;;;;;;;;10.05;100.00;98227.53;5067357;28;20094;-88
2022/09/23 05:23:59;;;;;;;;;;;;;;;10.16;100.00;98228.47;5071507;28;19935;-86
2022/09/23 05:26:26;;;;;;;;;;;;;;;9.97;100.00;98224.50;5059001;28;19940;-88
2022/09/23 05:28:53;;;;;;;;;;;;;;;10.09;100.00;98230.50;5058301;28;19932;-87
2022/09/23 05:31:20;;;;;;;;;;;;;;;10.34;100.00;98235.31;5068060;28;20038;-87
2022/09/23 05:33:47;;;;;;;;;;;;;;;10.01;100.00;98230.94;5075694;28;19928;-87
2022/09/23 05:36:15;;;;;;;;;;;;;;;10.06;100.00;98236.34;5078482;28;19986;-88
2022/09/23 05:38:43;;;;;;;;;;;;;;;10.55;100.00;98231.78;5067530;28;20023;-86
2022/09/23 05:41:11;;;;;;;;;;;;;;;10.69;100.00;98238.28;5043607;28;19924;-86
2022/09/23 05:43:37;;;;;;;;;;;;;;;10.76;100.00;98233.53;5054788;28;20319;-86
2022/09/23 05:46:04;;;;;;;;;;;;;;;10.46;100.00;98228.75;5068332;28;19932;-87
2022/09/23 05:48:31;;;;;;;;;;;;;;;10.00;100.00;98224.00;5056452;28;19956;-87
2022/09/23 05:50:58;;;;;;;;;;;;;;;9.87;100.00;98229.75;5050800;28;19932;-87
2022/09/23 05:53:25;;;;;;;;;;;;;;;9.54;100.00;98228.81;5041114;28;19925;-87
2022/09/23 05:55:53;;;;;;;;;;;;;;;9.53;100.00;98231.75;5069175;28;20007;-87
2022/09/23 05:58:19;;;;;;;;;;;;;;;9.98;100.00;98231.47;5064955;28;20002;-86
2022/09/23 06:00:48;;;;;;;;;;;;;;;9.64;100.00;98236.16;5043493;28;20014;-87
2022/09/23 06:03:14;;;;;;;;;;;;;;;9.54;100.00;98236.81;5050193;28;20026;-87
2022/09/23 06:05:41;;;;;;;;;;;;;;;9.39;100.00;98236.63;5071031;28;20434;-87
2022/09/23 06:08:07;;;;;;;;;;;;;;;9.65;100.00;98237.75;5064929;28;19944;-88
2022/09/23 06:10:36;;;;;;;;;;;;;;;9.43;100.00;98235.09;5059338;28;19928;-87
2022/09/23 06:13:03;;;;;;;;;;;;;;;9.74;100.00;98234.41;5040987;28;19924;-88
2022/09/23 06:15:30;;;;;;;;;;;;;;;9.66;100.00;98232.16;5071008;28;19924;-86
2022/09/23 06:17:56;;;;;;;;;;;;;;;10.04;100.00;98225.94;5052075;28;20314;-87
2022/09/23 06:20:22;;;;;;;;;;;;;;;10.42;100.00;98235.66;5072718;28;19967;-86
2022/09/23 06:22:49;;;;;;;;;;;;;;;10.54;100.00;98230.97;5070248;28;20451;-87
2022/09/23 06:25:18;;;;;;;;;;;;;;;10.53;100.00;98231.19;5045426;28;20375;-88
2022/09/23 06:27:44;;;;;;;;;;;;;;;10.62;100.00;98227.81;5061653;28;19931;-88
2022/09/23 06:30:15;;;;;;;;;;;;;;;10.92;100.00;98234.44;5056128;28;22534;-87
2022/09/23 06:32:43;;;;;;;;;;;;;;;10.93;100.00;98230.69;5047038;28;19924;-88
2022/09/23 06:35:10;;;;;;;;;;;;;;;10.71;100.00;98236.16;5058791;28;19928;-86
2022/09/23 06:37:37;;;;;;;;;;;;;;;10.79;100.00;98233.84;5084302;28;20555;-87
2022/09/23 06:40:03;;;;;;;;;;;;;;;10.46;100.00;98220.72;5062575;28;19931;-88
2022/09/23 06:42:30;;;;;;;;;;;;;;;10.69;100.00;98232.94;5086628;28;20018;-87
2022/09/23 06:44:57;;;;;;;;;;;;;;;10.67;100.00;98227.88;5066598;28;19955;-86
2022/09/23 06:47:24;;;;;;;;;;;;;;;11.08;100.00;98231.59;5063731;28;20326;-88
2022/09/23 06:49:51;;;;;;;;;;;;;;;11.03;100.00;98230.78;5073918;28;19971;-87
2022/09/23 06:52:19;;;;;;;;;;;;;;;11.39;100.00;98235.25;5065305;28;20677;-88
2022/09/23 06:54:46;;;;;;;;;;;;;;;11.61;100.00;98241.25;5070582;28;19924;-86
2022/09/23 06:57:13;;;;;;;;;;;;;;;11.75;100.00;98242.41;5073294;28;20585;-87
2022/09/23 06:59:40;;;;;;;;;;;;;;;11.95;100.00;98246.19;5070749;28;19939;-86
2022/09/23 07:02:07;;;;;;;;;;;;;;;11.81;100.00;98241.38;5076557;28;20468;-87
2022/09/23 07:04:35;;;;;;;;;;;;;;;11.71;100.00;98238.66;5074187;28;19924;-89
2022/09/23 07:07:01;;;;;;;;;;;;;;;12.01;100.00;98248.63;5078478;28;19928;-87
2022/09/23 07:09:28;;;;;;;;;;;;;;;12.05;100.00;98249.72;5065802;28;19935;-86
2022/09/23 07:11:54;;;;;;;;;;;;;;;11.88;100.00;98241.13;5071229;28;19964;-87
2022/09/23 07:14:20;;;;;;;;;;;;;;;12.01;100.00;98242.50;5075436;28;20457;-86
2022/09/23 07:16:48;;;;;;;;;;;;;;;11.93;100.00;98243.00;5077462;28;20558;-87
2022/09/23 07:19:14;;;;;;;;;;;;;;;11.44;100.00;98245.19;5050802;28;20403;-90
2022/09/23 07:21:42;;;;;;;;;;;;;;;11.11;100.00;98252.47;5070222;28;20647;-88
2022/09/23 07:24:08;;;;;;;;;;;;;;;10.87;100.00;98248.56;5075610;28;19928;-88
2022/09/23 07:26:35;;;;;;;;;;;;;;;10.89;100.00;98251.00;5065500;28;19931;-86
2022/09/23 07:29:03;;;;;;;;;;;;;;;11.17;100.00;98253.34;5064379;28;20022;-86
2022/09/23 07:31:30;;;;;;;;;;;;;;;11.14;100.00;98249.28;5071807;28;19951;-88
2022/09/23 07:33:57;;;;;;;;;;;;;;;11.06;100.00;98255.13;5054247;28;19924;-90
2022/09/23 07:36:26;;;;;;;;;;;;;;;11.16;100.00;98249.84;5065219;28;19925;-87
2022/09/23 07:38:59;;;;;;;;;;;;;;;11.09;100.00;98249.25;5075042;28;20508;-88
2022/09/23 07:41:26;;;;;;;;;;;;;;;11.04;100.00;98246.56;5066836;28;20015;-88
2022/09/23 07:43:54;;;;;;;;;;;;;;;11.17;100.00;98242.63;5060210;28;19936;-90
2022/09/23 07:46:20;;;;;;;;;;;;;;;11.23;100.00;98247.72;5073193;28;19989;-87
2022/09/23 07:48:47;;;;;;;;;;;;;;;11.42;100.00;98240.06;5098053;28;19928;-88
2022/09/23 07:51:16;;;;;;;;;;;;;;;11.57;100.00;98239.38;5074894;28;19927;-87
2022/09/23 07:53:42;;;;;;;;;;;;;;;11.66;100.00;98235.94;5080021;28;19924;-87
2022/09/23 07:56:10;;;;;;;;;;;;;;;11.64;100.00;98232.69;5075200;28;19936;-86
2022/09/23 07:58:37;;;;;;;;;;;;;;;11.31;100.00;98241.09;5074761;28;19924;-88
2022/09/23 08:01:04;;;;;;;;;;;;;;;11.33;100.00;98230.94;5064631;28;20367;-87
2022/09/23 08:03:31;;;;;;;;;;;;;;;11.52;100.00;98233.97;5086907;28;20588;-88
2022/09/23 08:06:04;;;;;;;;;;;;;;;11.15;100.00;98236.72;5063770;28;19928;-87
2022/09/23 08:08:30;;;;;;;;;;;;;;;11.35;100.00;98232.31;5058498;28;20399;-87
2022/09/23 08:10:59;;;;;;;;;;;;;;;11.16;100.00;98233.00;5076806;28;20618;-87
2022/09/23 08:13:27;;;;;;;;;;;;;;;11.07;100.00;98239.91;5062569;28;19928;-87
2022/09/23 08:15:53;;;;;;;;;;;;;;;11.12;100.00;98240.72;5067434;28;19990;-88
2022/09/23 08:18:20;;;;;;;;;;;;;;;11.27;100.00;98240.00;5069711;28;19957;-87
2022/09/23 08:20:46;;;;;;;;;;;;;;;11.22;100.00;98238.13;5049064;28;20065;-90
2022/09/23 08:23:13;;;;;;;;;;;;;;;11.09;100.00;98235.09;5077831;28;20047;-86
2022/09/23 08:25:40;;;;;;;;;;;;;;;10.75;100.00;98237.25;5065457;28;19994;-86
2022/09/23 08:28:06;;;;;;;;;;;;;;;10.67;100.00;98235.88;5075599;28;20563;-85
2022/09/23 08:30:34;;;;;;;;;;;;;;;10.67;100.00;98235.88;5067547;28;19924;-88
2022/09/23 08:33:00;;;;;;;;;;;;;;;10.51;100.00;98234.16;5057012;28;19924;-86
2022/09/23 08:35:27;;;;;;;;;;;;;;;10.51;100.00;98234.16;5060179;28;19929;-87
2022/09/23 08:37:53;;;;;;;;;;;;;;;10.62;100.00;98232.34;5067538;28;19928;-85
2022/09/23 08:40:19;;;;;;;;;;;;;;;10.72;100.00;98222.56;5047295;28;19924;-85
2022/09/23 08:42:47;;;;;;;;;;;;;;;10.83;100.00;98224.22;5080451;28;19936;-87
2022/09/23 08:45:15;;;;;;;;;;;;;;;11.04;100.00;98229.72;5066255;28;19936;-85
2022/09/23 08:47:47;;;;;;;;;;;;;;;10.97;100.00;98224.59;5049690;28;19929;-86
2022/09/23 08:50:16;;;;;;;;;;;;;;;10.96;100.00;98225.66;5065711;28;19930;-86
2022/09/23 08:52:48;;;;;;;;;;;;;;;11.03;100.00;98226.25;5072957;28;20506;-88
2022/09/23 08:55:15;;;;;;;;;;;;;;;11.21;100.00;98225.81;5066023;28;19928;-87
2022/09/23 08:57:45;;;;;;;;;;;;;;;11.20;100.00;98212.72;5067337;28;19929;-87
2022/09/23 09:00:15;;;;;;;;;;;;;;;11.36;100.00;98212.50;5072108;28;20644;-86
2022/09/23 09:02:43;;;;;;;;;;;;;;;11.44;100.00;98213.91;5080836;28;19950;-86
2022/09/23 09:05:11;;;;;;;;;;;;;;;11.53;100.00;98215.00;5063756;28;19925;-86
2022/09/23 09:07:39;;;;;;;;;;;;;;;11.58;100.00;98209.66;5063340;28;19960;-85
2022/09/23 09:10:10;;;;;;;;;;;;;;;11.64;100.00;98219.31;5068429;28;20379;-86
2022/09/23 09:12:40;;;;;;;;;;;;;;;11.72;100.00;98210.84;5081025;28;19985;-86
2022/09/23 09:15:11;;;;;;;;;;;;;;;11.77;100.00;98205.50;5047443;28;19971;-86
2022/09/23 09:17:38;;;;;;;;;;;;;;;11.93;100.00;98200.16;5053011;28;20406;-87
2022/09/23 09:20:17;;;;;;;;;;;;;;;11.98;100.00;98192.94;5073395;28;20023;-85
2022/09/23 09:22:49;;;;;;;;;;;;;;;12.10;100.00;98200.75;5072369;28;19924;-86
2022/09/23 09:25:23;;;;;;;;;;;;;;;12.19;100.00;98207.97;5072167;28;19928;-86
2022/09/23 09:27:50;;;;;;;;;;;;;;;12.18;100.00;98197.53;5050573;28;19935;-85
2022/09/23 09:30:17;;;;;;;;;;;;;;;12.17;100.00;98198.59;5069898;28;20154;-85
2022/09/23 09:32:47;;;;;;;;;;;;;;;12.28;100.00;98197.56;5093291;28;19991;-86
2022/09/23 09:35:19;;;;;;;;;;;;;;;12.25;100.00;98187.38;5060298;28;20375;-85
2022/09/23 09:37:47;;;;;;;;;;;;;;;12.35;100.00;98187.38;5085399;28;20681;-85
2022/09/23 09:40:15;;;;;;;;;;;;;;;12.41;100.00;98187.09;5073180;28;19930;-85
2022/09/23 09:42:42;;;;;;;;;;;;;;;12.39;100.00;98188.44;5073862;28;19959;-86
2022/09/23 09:45:15;;;;;;;;;;;;;;;12.46;100.00;98180.97;5047140;28;19928;-85
2022/09/23 09:47:46;;;;;;;;;;;;;;;12.52;100.00;98179.88;5053990;28;20292;-90
2022/09/23 09:50:20;;;;;;;;;;;;;;;12.61;100.00;98172.91;5081350;28;19924;-86
2022/09/23 09:52:48;;;;;;;;;;;;;;;12.73;100.00;98162.72;5067548;28;19967;-86
2022/09/23 09:55:17;;;;;;;;;;;;;;;12.71;100.00;98170.22;5070934;28;19935;-87
2022/09/23 09:57:46;;;;;;;;;;;;;;;12.76;100.00;98172.91;5069100;28;20019;-86
2022/09/23 10:00:18;;;;;;;;;;;;;;;12.86;100.00;98166.72;5071365;28;20023;-87
2022/09/23 10:02:45;;;;;;;;;;;;;;;12.86;100.00;98164.03;5079589;28;19928;-85
2022/09/23 10:05:24;;;;;;;;;;;;;;;12.89;100.00;98155.47;5078570;28;19925;-85
2022/09/23 10:07:52;;;;;;;;;;;;;;;13.04;100.00;98151.94;5081880;28;19931;-88
2022/09/23 10:10:20;;;;;;;;;;;;;;;12.99;100.00;98145.53;5080087;28;20389;-87
2022/09/23 10:12:48;;;;;;;;;;;;;;;13.06;100.00;98145.22;5063008;28;20347;-86
2022/09/23 10:15:26;;;;;;;;;;;;;;;13.17;100.00;98146.03;5072953;28;20050;-84
2022/09/23 10:17:53;;;;;;;;;;;;;;;13.21;100.00;98134.50;5078130;28;20594;-86
2022/09/23 10:20:19;;;;;;;;;;;;;;;13.49;100.00;98138.38;5061015;28;19943;-86
2022/09/23 10:22:46;;;;;;;;;;;;;;;13.66;100.00;98138.00;5077721;28;19924;-86
2022/09/23 10:25:19;;;;;;;;;;;;;;;13.63;100.00;98133.19;5077780;28;19930;-85
2022/09/23 10:27:45;;;;;;;;;;;;;;;13.65;100.00;98126.47;5071585;28;19924;-86
2022/09/23 10:30:21;;;;;;;;;;;;;;;13.72;100.00;98123.47;5049893;28;20373;-86
2022/09/23 10:32:47;;;;;;;;;;;;;;;13.88;100.00;98125.00;5068505;28;19924;-88
2022/09/23 10:35:15;;;;;;;;;;;;;;;13.91;100.00;98136.00;5071799;28;19928;-85
2022/09/23 10:37:43;;;;;;;;;;;;;;;13.90;100.00;98120.94;5087873;28;19951;-85
2022/09/23 10:48:53;;;;;;;;;;;;;;;14.17;100.00;98106.28;5058763;28;19929;-85
2022/09/23 10:51:22;;;;;;;;;;;;;;;14.21;100.00;98101.91;5070369;28;19963;-86
2022/09/23 10:53:53;;;;;;;;;;;;;;;14.31;100.00;98093.78;5084803;28;19946;-87
2022/09/23 10:56:29;;;;;;;;;;;;;;;14.29;100.00;98093.28;5075683;28;19928;-86
2022/09/23 10:59:01;;;;;;;;;;;;;;;14.27;100.00;98098.91;5082717;28;19924;-84
2022/09/23 11:01:33;;;;;;;;;;;;;;;14.35;100.00;98092.16;5055459;28;20347;-84
2022/09/23 11:04:16;;;;;;;;;;;;;;;14.41;100.00;98099.91;5079065;28;19924;-84
2022/09/23 11:06:49;;;;;;;;;;;;;;;14.60;99.00;98089.25;5083540;28;19932;-86
2022/09/23 11:09:25;;;;;;;;;;;;;;;14.46;100.00;98089.09;5075332;28;19931;-85
2022/09/23 11:12:00;;;;;;;;;;;;;;;14.46;100.00;98090.97;5074884;28;19932;-85
2022/09/23 11:14:37;;;;;;;;;;;;;;;14.58;100.00;98092.19;5076071;28;20022;-85
2022/09/23 11:17:19;;;;;;;;;;;;;;;14.67;100.00;98089.69;5058733;28;19935;-85
2022/09/23 11:19:54;;;;;;;;;;;;;;;14.80;100.00;98086.34;5078209;28;19931;-85
2022/09/23 11:22:35;;;;;;;;;;;;;;;14.77;100.00;98078.03;5077885;28;19928;-85
2022/09/23 11:25:13;;;;;;;;;;;;;;;14.95;100.00;98075.41;5081038;28;19932;-87
2022/09/23 11:27:50;;;;;;;;;;;;;;;15.08;100.00;98074.72;5081880;28;20007;-87
2022/09/23 11:30:18;;;;;;;;;;;;;;;15.18;98.33;98070.28;5070581;28;19924;-85
2022/09/23 11:33:01;;;;;;;;;;;;;;;15.17;98.84;98071.38;5075448;28;19924;-85
2022/09/23 11:35:31;;;;;;;;;;;;;;;15.12;100.00;98065.00;5053755;28;20471;-85
2022/09/23 11:38:01;;;;;;;;;;;;;;;15.20;100.00;98065.41;5077697;28;19978;-85
2022/09/23 11:40:32;;;;;;;;;;;;;;;15.20;98.34;98049.28;5074501;28;20263;-85
2022/09/23 11:43:01;;;;;;;;;;;;;;;15.30;100.00;98046.47;5074824;28;19962;-85
2022/09/23 11:45:30;;;;;;;;;;;;;;;15.45;99.96;98049.75;5067257;28;19925;-86
2022/09/23 11:47:58;;;;;;;;;;;;;;;15.22;100.00;98057.88;5072696;28;20015;-86
2022/09/23 11:50:28;;;;;;;;;;;;;;;15.07;100.00;98048.91;5066889;28;20019;-85
2022/09/23 11:53:00;;;;;;;;;;;;;;;15.10;100.00;98045.63;5081602;28;19928;-87
2022/09/23 11:55:31;;;;;;;;;;;;;;;15.35;100.00;98036.41;5061469;28;20023;-85
2022/09/23 11:57:59;;;;;;;;;;;;;;;15.49;97.23;98037.34;5082095;28;19928;-86
2022/09/23 12:00:31;;;;;;;;;;;;;;;15.34;99.51;98034.84;5075605;28;19932;-85
2022/09/23 12:03:03;;;;;;;;;;;;;;;15.51;98.95;98032.47;5078565;28;20068;-87
2022/09/23 12:05:32;;;;;;;;;;;;;;;15.36;100.00;98031.84;5068012;28;19928;-87
2022/09/23 12:08:01;;;;;;;;;;;;;;;15.53;100.00;98026.81;5078773;28;19928;-86
2022/09/23 12:10:37;;;;;;;;;;;;;;;15.48;99.48;98011.50;5080852;28;19932;-86
2022/09/23 12:13:07;;;;;;;;;;;;;;;15.69;98.49;98014.69;5075728;28;19924;-87
2022/09/23 12:15:41;;;;;;;;;;;;;;;15.67;98.13;98003.41;5077786;28;20508;-86
2022/09/23 12:18:18;;;;;;;;;;;;;;;15.80;98.08;98016.13;5057982;28;20015;-85
2022/09/23 12:20:53;;;;;;;;;;;;;;;15.77;95.26;98007.84;5081727;28;19924;-86
2022/09/23 12:23:27;;;;;;;;;;;;;;;15.66;99.44;98005.31;5084476;28;20387;-85
2022/09/23 12:25:56;;;;;;;;;;;;;;;15.80;95.57;98007.25;5064743;28;19931;-85
2022/09/23 12:28:25;;;;;;;;;;;;;;;15.70;96.52;98005.53;5061325;28;19933;-88
2022/09/23 12:30:54;;;;;;;;;;;;;;;15.36;100.00;97997.66;5074045;28;19935;-85
2022/09/23 12:33:23;;;;;;;;;;;;;;;15.61;99.75;98001.91;5076493;28;19939;-85
2022/09/23 12:35:52;;;;;;;;;;;;;;;15.79;96.66;97995.69;5073963;28;19936;-85
2022/09/23 12:38:21;;;;;;;;;;;;;;;15.99;94.58;97997.25;5056278;28;20410;-85
2022/09/23 12:40:47;;;;;;;;;;;;;;;16.03;92.92;97990.97;5089547;28;19924;-87
2022/09/23 12:43:17;;;;;;;;;;;;;;;15.83;96.05;97979.75;5090948;28;19932;-85
2022/09/23 12:45:44;;;;;;;;;;;;;;;16.02;95.11;97981.31;5072790;28;19931;-84
2022/09/23 12:48:42;;;;;;;;;;;;;;;16.14;93.38;97980.81;5056183;28;19928;-85
2022/09/23 12:51:16;;;;;;;;;;;;;;;16.17;91.17;97983.72;5078736;28;19928;-86
2022/09/23 12:53:52;;;;;;;;;;;;;;;15.97;91.62;97975.19;5084136;28;20404;-86
2022/09/23 12:56:19;;;;;;;;;;;;;;;16.05;93.67;97975.31;5077730;28;19936;-85
2022/09/23 12:59:09;;;;;;;;;;;;;;;16.21;90.02;97962.38;5085502;28;20576;-86
2022/09/23 13:01:36;;;;;;;;;;;;;;;16.37;88.13;97954.81;5076167;28;19956;-85